createdAt,value
2023-04-22T00:02:29.465Z,36.10
2023-04-22T00:05:07.214Z,36.30
2023-04-22T00:07:43.123Z,36.40
2023-04-22T00:10:18.070Z,36.50
2023-04-22T00:12:52.954Z,36.50
2023-04-22T00:15:27.912Z,36.70
2023-04-22T00:18:02.891Z,36.90
2023-04-22T00:20:39.227Z,37.00
2023-04-22T00:23:14.219Z,37.10
2023-04-22T00:25:49.068Z,37.30
2023-04-22T00:28:23.940Z,37.30
2023-04-22T00:30:58.956Z,37.60
2023-04-22T00:33:33.871Z,37.70
2023-04-22T00:36:08.830Z,38.00
2023-04-22T00:38:49.885Z,38.00
2023-04-22T00:41:25.175Z,38.20
2023-04-22T00:44:01.257Z,38.40
2023-04-22T00:46:38.685Z,38.50
2023-04-22T00:49:14.589Z,38.40
2023-04-22T00:51:51.082Z,38.30
2023-04-22T00:54:26.274Z,38.40
2023-04-22T00:57:02.986Z,38.50
2023-04-22T00:59:38.501Z,38.80
2023-04-22T01:02:14.528Z,39.00
2023-04-22T01:04:49.655Z,39.10
2023-04-22T01:07:24.604Z,39.20
2023-04-22T01:09:59.577Z,39.20
2023-04-22T01:12:34.699Z,39.20
2023-04-22T01:15:11.349Z,39.30
2023-04-22T01:17:46.508Z,39.30
2023-04-22T01:20:23.355Z,39.40
2023-04-22T01:23:04.359Z,39.60
2023-04-22T01:25:39.313Z,39.60
2023-04-22T01:28:15.636Z,39.70
2023-04-22T01:30:50.692Z,39.70
2023-04-22T01:33:25.790Z,39.80
2023-04-22T01:36:00.919Z,40.00
2023-04-22T01:38:35.870Z,40.20
2023-04-22T01:41:14.456Z,40.40
2023-04-22T01:43:53.818Z,40.50
2023-04-22T01:46:28.814Z,40.50
2023-04-22T01:49:03.740Z,40.60
2023-04-22T01:51:38.751Z,40.70
2023-04-22T01:54:14.593Z,40.80
2023-04-22T01:56:55.505Z,40.80
2023-04-22T01:59:30.728Z,40.80
2023-04-22T02:02:06.258Z,40.90
2023-04-22T02:04:41.198Z,41.10
2023-04-22T02:07:16.139Z,41.30
2023-04-22T02:09:51.581Z,41.30
2023-04-22T02:12:26.541Z,41.50
2023-04-22T02:15:01.396Z,41.70
2023-04-22T02:17:36.376Z,41.80
2023-04-22T02:20:12.312Z,42.00
2023-04-22T02:22:47.777Z,42.30
2023-04-22T02:25:22.691Z,42.40
2023-04-22T02:27:58.387Z,42.60
2023-04-22T02:30:33.625Z,42.90
2023-04-22T02:33:08.724Z,42.90
2023-04-22T02:35:43.651Z,43.10
2023-04-22T02:38:24.297Z,43.30
2023-04-22T02:40:59.201Z,43.50
2023-04-22T02:43:34.217Z,43.80
2023-04-22T02:46:13.013Z,43.90
2023-04-22T02:48:49.436Z,44.10
2023-04-22T02:51:24.308Z,44.30
2023-04-22T02:54:00.212Z,44.50
2023-04-22T02:56:35.540Z,44.70
2023-04-22T02:59:10.405Z,44.90
2023-04-22T03:01:45.440Z,45.00
2023-04-22T03:04:32.505Z,45.00
2023-04-22T03:07:07.463Z,45.30
2023-04-22T03:09:43.064Z,45.60
2023-04-22T03:12:18.128Z,45.90
2023-04-22T03:14:54.339Z,46.50
2023-04-22T03:17:31.677Z,46.80
2023-04-22T03:20:10.034Z,47.10
2023-04-22T03:22:44.998Z,47.60
2023-04-22T03:25:21.793Z,48.00
2023-04-22T03:28:04.187Z,48.70
2023-04-22T03:30:39.158Z,49.20
2023-04-22T03:33:14.163Z,49.20
2023-04-22T03:35:55.225Z,49.20
2023-04-22T03:38:30.729Z,49.60
2023-04-22T03:41:05.979Z,49.90
2023-04-22T03:43:47.927Z,50.30
2023-04-22T03:46:22.879Z,50.50
2023-04-22T03:49:08.351Z,50.80
2023-04-22T03:51:43.887Z,51.00
2023-04-22T03:54:23.360Z,51.40
2023-04-22T03:57:00.804Z,51.90
2023-04-22T03:59:35.807Z,52.40
2023-04-22T04:02:11.222Z,52.90
2023-04-22T04:04:46.621Z,53.30
2023-04-22T04:07:22.902Z,53.60
2023-04-22T04:09:59.193Z,53.70
2023-04-22T04:12:35.171Z,53.80
2023-04-22T04:15:11.805Z,54.20
2023-04-22T04:17:48.506Z,54.50
2023-04-22T04:20:25.419Z,54.70
2023-04-22T04:23:00.700Z,54.80
2023-04-22T04:25:39.048Z,54.80
2023-04-22T04:28:19.118Z,54.80
2023-04-22T04:30:54.325Z,54.70
2023-04-22T04:33:34.310Z,54.60
2023-04-22T04:36:10.665Z,54.70
2023-04-22T04:38:47.753Z,54.90
2023-04-22T04:41:23.404Z,55.00
2023-04-22T04:44:00.553Z,55.10
2023-04-22T04:46:41.239Z,55.10
2023-04-22T04:49:17.286Z,55.20
2023-04-22T04:52:01.865Z,55.00
2023-04-22T04:54:37.176Z,55.20
2023-04-22T04:57:12.148Z,55.10
2023-04-22T04:59:48.283Z,55.40
2023-04-22T05:02:23.784Z,55.30
2023-04-22T05:04:59.275Z,55.20
2023-04-22T05:07:35.626Z,55.10
2023-04-22T05:10:11.500Z,55.00
2023-04-22T05:12:47.850Z,54.80
2023-04-22T05:15:28.546Z,54.40
2023-04-22T05:18:03.615Z,54.00
2023-04-22T05:20:39.224Z,53.70
2023-04-22T05:23:14.406Z,53.30
2023-04-22T05:25:50.810Z,53.00
2023-04-22T05:28:27.384Z,52.80
2023-04-22T05:31:05.298Z,52.60
2023-04-22T05:33:40.263Z,52.20
2023-04-22T05:36:15.390Z,52.20
2023-04-22T05:38:52.003Z,52.10
2023-04-22T05:41:27.460Z,52.10
2023-04-22T05:44:04.720Z,52.00
2023-04-22T05:46:39.768Z,52.00
2023-04-22T05:49:14.684Z,51.90
2023-04-22T05:52:21.952Z,51.90
2023-04-22T05:55:08.638Z,51.70
2023-04-22T05:57:43.524Z,51.40
2023-04-22T06:00:36.326Z,51.20
2023-04-22T06:03:31.593Z,50.90
2023-04-22T06:06:07.236Z,50.60
2023-04-22T06:08:42.376Z,50.40
2023-04-22T06:11:18.756Z,50.10
2023-04-22T06:13:53.737Z,49.60
2023-04-22T06:16:30.001Z,48.70
2023-04-22T06:19:05.990Z,48.20
2023-04-22T06:21:42.539Z,47.90
2023-04-22T06:24:17.739Z,47.40
2023-04-22T06:26:52.742Z,46.80
2023-04-22T06:29:28.023Z,46.50
2023-04-22T06:32:03.575Z,45.90
2023-04-22T06:34:39.218Z,45.40
2023-04-22T06:37:14.308Z,45.00
2023-04-22T06:39:49.306Z,44.10
2023-04-22T06:42:42.926Z,43.50
2023-04-22T06:45:48.691Z,43.10
2023-04-22T06:48:46.269Z,42.60
2023-04-22T06:51:28.287Z,42.00
2023-04-22T06:54:04.160Z,41.90
2023-04-22T06:56:39.359Z,41.80
2023-04-22T06:59:14.367Z,41.50
2023-04-22T07:01:49.256Z,41.40
2023-04-22T07:04:24.907Z,41.20
2023-04-22T07:06:59.971Z,41.00
2023-04-22T07:09:36.123Z,40.80
2023-04-22T07:12:11.275Z,40.40
2023-04-22T07:14:49.637Z,40.10
2023-04-22T07:17:24.580Z,39.90
2023-04-22T07:19:59.627Z,40.00
2023-04-22T07:22:34.539Z,39.70
2023-04-22T07:25:10.131Z,39.20
2023-04-22T07:27:45.187Z,38.90
2023-04-22T07:30:20.231Z,38.80
2023-04-22T07:32:55.489Z,38.50
2023-04-22T07:35:30.874Z,38.40
2023-04-22T07:38:07.295Z,38.50
2023-04-22T07:40:42.873Z,38.40
2023-04-22T07:43:17.881Z,38.30
2023-04-22T07:45:52.868Z,38.10
2023-04-22T07:48:27.896Z,38.00
2023-04-22T07:51:03.209Z,37.70
2023-04-22T07:53:38.088Z,37.60
2023-04-22T07:56:13.666Z,37.20
2023-04-22T07:58:48.524Z,37.00
2023-04-22T08:01:23.432Z,36.60
2023-04-22T08:03:58.948Z,36.10
2023-04-22T08:06:34.276Z,36.00
2023-04-22T08:09:10.493Z,35.90
2023-04-22T08:11:45.506Z,35.80
2023-04-22T08:14:20.371Z,35.50
2023-04-22T08:16:55.675Z,35.30
2023-04-22T08:19:30.965Z,34.80
2023-04-22T08:22:06.060Z,34.80
2023-04-22T08:24:41.226Z,34.70
2023-04-22T08:27:16.137Z,34.80
2023-04-22T08:29:51.282Z,34.80
2023-04-22T08:32:26.559Z,34.60
2023-04-22T08:35:04.983Z,34.50
2023-04-22T08:37:41.703Z,34.70
2023-04-22T08:40:16.675Z,34.90
2023-04-22T08:42:52.590Z,34.90
2023-04-22T08:45:27.595Z,35.10
2023-04-22T08:48:03.180Z,34.90
2023-04-22T08:50:41.319Z,35.00
2023-04-22T08:53:16.274Z,34.70
2023-04-22T08:55:52.096Z,34.70
2023-04-22T08:58:28.972Z,34.70
2023-04-22T09:01:03.978Z,34.90
2023-04-22T09:03:42.621Z,35.30
2023-04-22T09:06:21.053Z,35.30
2023-04-22T09:08:56.891Z,35.10
2023-04-22T09:11:33.601Z,35.00
2023-04-22T09:14:08.528Z,34.90
2023-04-22T09:16:48.214Z,34.60
2023-04-22T09:19:25.642Z,34.60
2023-04-22T09:22:00.801Z,33.80
2023-04-22T09:24:36.169Z,34.00
2023-04-22T09:27:11.317Z,33.90
2023-04-22T09:29:50.783Z,33.90
2023-04-22T09:32:26.172Z,33.40
2023-04-22T09:35:01.524Z,32.90
2023-04-22T09:37:48.567Z,32.60
2023-04-22T09:40:25.136Z,32.50
2023-04-22T09:43:07.232Z,32.50
2023-04-22T09:45:43.089Z,32.50
2023-04-22T09:48:19.569Z,31.90
2023-04-22T09:50:54.454Z,32.00
2023-04-22T09:53:29.896Z,31.80
2023-04-22T09:56:04.993Z,31.50
2023-04-22T09:58:40.534Z,31.70
2023-04-22T10:01:16.008Z,32.00
2023-04-22T10:03:51.157Z,31.80
2023-04-22T10:06:26.089Z,31.80
2023-04-22T10:09:01.601Z,31.70
2023-04-22T10:11:37.561Z,31.40
2023-04-22T10:14:14.170Z,31.10
2023-04-22T10:16:53.158Z,30.70
2023-04-22T10:19:29.465Z,30.70
2023-04-22T10:22:05.711Z,30.50
2023-04-22T10:24:42.045Z,30.70
2023-04-22T10:27:22.239Z,30.70
2023-04-22T10:29:57.718Z,30.80
2023-04-22T10:32:33.233Z,30.40
2023-04-22T10:35:12.527Z,30.10
2023-04-22T10:37:48.993Z,30.30
2023-04-22T10:40:23.954Z,30.30
2023-04-22T10:43:03.381Z,30.30
2023-04-22T10:45:38.569Z,29.50
2023-04-22T10:48:13.537Z,28.30
2023-04-22T10:50:48.470Z,28.30
2023-04-22T10:53:37.187Z,28.40
2023-04-22T10:56:18.457Z,28.50
2023-04-22T10:58:56.471Z,28.70
2023-04-22T11:01:41.366Z,28.90
2023-04-22T11:04:23.162Z,29.00
2023-04-22T11:07:31.967Z,28.30
2023-04-22T11:10:07.110Z,28.60
2023-04-22T11:12:44.831Z,28.00
2023-04-22T11:15:22.265Z,27.40
2023-04-22T11:17:57.504Z,26.70
2023-04-22T11:20:32.532Z,27.30
2023-04-22T11:23:07.525Z,27.40
2023-04-22T11:25:42.421Z,26.80
2023-04-22T11:28:22.775Z,26.70
2023-04-22T11:31:06.665Z,26.90
2023-04-22T11:33:41.725Z,26.80
2023-04-22T11:36:19.396Z,26.40
2023-04-22T11:38:57.598Z,25.80
2023-04-22T11:41:32.581Z,24.80
2023-04-22T11:44:07.482Z,24.30
2023-04-22T11:46:44.647Z,24.10
2023-04-22T11:49:19.933Z,23.90
2023-04-22T11:51:56.643Z,23.80
2023-04-22T11:54:37.492Z,24.10
2023-04-22T11:57:15.662Z,24.50
2023-04-22T11:59:59.548Z,24.50
2023-04-22T12:02:34.504Z,24.10
2023-04-22T12:05:12.404Z,23.70
2023-04-22T12:07:50.262Z,23.90
2023-04-22T12:10:25.159Z,24.20
2023-04-22T12:13:02.031Z,24.30
2023-04-22T12:15:43.953Z,24.30
2023-04-22T12:18:30.123Z,24.30
2023-04-22T12:21:12.705Z,24.10
2023-04-22T12:23:51.003Z,24.30
2023-04-22T12:26:27.627Z,24.20
2023-04-22T12:29:02.760Z,24.30
2023-04-22T12:31:38.694Z,24.70
2023-04-22T12:34:13.618Z,24.30
2023-04-22T12:36:48.682Z,24.10
2023-04-22T12:39:23.628Z,23.80
2023-04-22T12:41:58.603Z,24.10
2023-04-22T12:44:34.060Z,24.30
2023-04-22T12:47:09.966Z,24.40
2023-04-22T12:49:47.268Z,24.60
2023-04-22T12:52:22.400Z,24.30
2023-04-22T12:54:57.320Z,24.50
2023-04-22T12:57:32.693Z,24.30
2023-04-22T13:00:14.244Z,24.50
2023-04-22T13:02:49.795Z,24.20
2023-04-22T13:05:25.700Z,24.30
2023-04-22T13:08:07.242Z,23.90
2023-04-22T13:10:42.886Z,23.70
2023-04-22T13:13:19.403Z,23.90
2023-04-22T13:15:54.951Z,23.90
2023-04-22T13:18:29.867Z,23.80
2023-04-22T13:21:06.253Z,23.80
2023-04-22T13:23:41.148Z,23.60
2023-04-22T13:26:16.240Z,23.70
2023-04-22T13:28:51.109Z,23.80
2023-04-22T13:31:26.024Z,24.30
2023-04-22T13:34:01.009Z,24.30
2023-04-22T13:36:36.143Z,24.70
2023-04-22T13:39:11.453Z,24.40
2023-04-22T13:41:46.406Z,26.80
2023-04-22T13:44:21.359Z,28.10
2023-04-22T13:46:56.547Z,27.60
2023-04-22T13:49:31.809Z,27.60
2023-04-22T13:52:06.708Z,27.50
2023-04-22T13:54:41.652Z,27.30
2023-04-22T13:57:16.559Z,27.10
2023-04-22T13:59:51.448Z,27.20
2023-04-22T14:02:26.486Z,27.10
2023-04-22T14:05:01.536Z,27.10
2023-04-22T14:07:37.031Z,27.00
2023-04-22T14:10:14.280Z,27.10
2023-04-22T14:12:50.511Z,27.00
2023-04-22T14:15:26.641Z,27.10
2023-04-22T14:18:01.801Z,26.90
2023-04-22T14:20:37.480Z,26.90
2023-04-22T14:23:12.480Z,27.10
2023-04-22T14:25:48.713Z,27.10
2023-04-22T14:28:23.746Z,26.70
2023-04-22T14:30:59.297Z,26.20
2023-04-22T14:33:34.251Z,26.10
2023-04-22T14:36:09.290Z,26.30
2023-04-22T14:38:44.424Z,26.20
2023-04-22T14:41:23.736Z,25.70
2023-04-22T14:43:58.768Z,25.70
2023-04-22T14:46:33.842Z,25.90
2023-04-22T14:49:08.888Z,26.40
2023-04-22T14:51:43.874Z,26.00
2023-04-22T14:54:19.019Z,26.50
2023-04-22T14:56:55.911Z,26.10
2023-04-22T14:59:31.147Z,25.80
2023-04-22T15:02:06.430Z,25.30
2023-04-22T15:04:43.610Z,25.40
2023-04-22T15:07:18.600Z,25.40
2023-04-22T15:09:55.764Z,25.20
2023-04-22T15:12:30.725Z,25.20
2023-04-22T15:15:06.501Z,25.30
2023-04-22T15:17:41.974Z,25.40
2023-04-22T15:20:16.896Z,25.50
2023-04-22T15:22:52.126Z,25.90
2023-04-22T15:25:27.400Z,25.60
2023-04-22T15:28:02.674Z,25.50
2023-04-22T15:30:37.577Z,25.70
2023-04-22T15:33:12.536Z,25.80
2023-04-22T15:35:49.466Z,25.90
2023-04-22T15:38:24.717Z,26.00
2023-04-22T15:40:59.679Z,26.30
2023-04-22T15:43:34.602Z,26.70
2023-04-22T15:46:09.705Z,26.00
2023-04-22T15:48:47.275Z,26.30
2023-04-22T15:51:22.816Z,26.10
2023-04-22T15:53:58.454Z,26.30
2023-04-22T15:56:34.539Z,26.30
2023-04-22T15:59:09.580Z,26.30
2023-04-22T16:01:46.264Z,26.10
2023-04-22T16:04:21.810Z,26.10
2023-04-22T16:06:59.667Z,26.40
2023-04-22T16:09:34.556Z,26.20
2023-04-22T16:12:09.417Z,26.40
2023-04-22T16:14:45.393Z,26.30
2023-04-22T16:17:20.936Z,26.30
2023-04-22T16:19:56.017Z,26.50
2023-04-22T16:22:30.884Z,26.40
2023-04-22T16:25:07.697Z,26.50
2023-04-22T16:27:42.576Z,26.40
2023-04-22T16:30:17.466Z,26.50
2023-04-22T16:32:52.427Z,26.60
2023-04-22T16:35:27.318Z,26.50
2023-04-22T16:38:02.617Z,26.50
2023-04-22T16:40:39.693Z,26.50
2023-04-22T16:43:14.623Z,26.50
2023-04-22T16:45:49.640Z,26.30
2023-04-22T16:48:24.596Z,26.70
2023-04-22T16:51:00.433Z,26.60
2023-04-22T16:53:35.968Z,26.70
2023-04-22T16:56:11.478Z,26.80
2023-04-22T16:58:46.369Z,26.80
2023-04-22T17:01:21.506Z,26.80
2023-04-22T17:03:57.693Z,26.90
2023-04-22T17:06:33.484Z,26.80
2023-04-22T17:09:09.608Z,26.80
2023-04-22T17:11:44.987Z,27.00
2023-04-22T17:14:20.166Z,27.10
2023-04-22T17:16:56.111Z,26.80
2023-04-22T17:19:31.119Z,26.80
2023-04-22T17:22:06.066Z,27.00
2023-04-22T17:24:42.153Z,27.10
2023-04-22T17:27:17.331Z,27.10
2023-04-22T17:29:52.267Z,27.10
2023-04-22T17:32:27.263Z,26.90
2023-04-22T17:35:03.412Z,27.00
2023-04-22T17:37:38.437Z,26.90
2023-04-22T17:40:14.562Z,27.40
2023-04-22T17:42:49.606Z,27.60
2023-04-22T17:45:24.524Z,27.50
2023-04-22T17:47:59.497Z,27.40
2023-04-22T17:50:35.461Z,27.80
2023-04-22T17:53:11.365Z,28.00
2023-04-22T17:55:46.455Z,28.10
2023-04-22T17:58:22.546Z,28.50
2023-04-22T18:01:00.301Z,28.70
2023-04-22T18:03:36.675Z,28.90
2023-04-22T18:06:11.767Z,29.10
2023-04-22T18:08:47.222Z,29.50
2023-04-22T18:11:22.916Z,29.70
2023-04-22T18:13:57.901Z,30.80
2023-04-22T18:16:33.903Z,30.70
2023-04-22T18:19:10.770Z,31.10
2023-04-22T18:21:59.161Z,31.30
2023-04-22T18:24:36.338Z,31.40
2023-04-22T18:27:12.303Z,32.10
2023-04-22T18:29:47.925Z,32.10
2023-04-22T18:32:25.041Z,32.00
2023-04-22T18:35:00.140Z,32.30
2023-04-22T18:37:35.273Z,32.20
2023-04-22T18:40:10.754Z,32.50
2023-04-22T18:42:47.446Z,33.10
2023-04-22T18:45:23.089Z,34.40
2023-04-22T18:47:58.975Z,34.10
2023-04-22T18:50:33.882Z,33.20
2023-04-22T18:53:10.035Z,33.50
2023-04-22T18:55:45.071Z,33.00
2023-04-22T18:58:23.205Z,33.70
2023-04-22T19:00:58.142Z,33.30
2023-04-22T19:03:33.276Z,32.80
2023-04-22T19:06:08.544Z,32.80
2023-04-22T19:08:43.408Z,33.00
2023-04-22T19:11:19.536Z,33.10
2023-04-22T19:13:54.397Z,34.20
2023-04-22T19:16:30.251Z,34.70
2023-04-22T19:19:06.676Z,35.10
2023-04-22T19:21:42.068Z,35.20
2023-04-22T19:24:17.648Z,34.60
2023-04-22T19:26:54.455Z,34.40
2023-04-22T19:29:29.809Z,35.00
2023-04-22T19:32:05.374Z,34.90
2023-04-22T19:34:40.425Z,34.80
2023-04-22T19:37:15.989Z,35.40
2023-04-22T19:39:50.981Z,34.70
2023-04-22T19:42:27.734Z,34.70
2023-04-22T19:45:02.595Z,35.40
2023-04-22T19:47:40.981Z,35.00
2023-04-22T19:50:16.661Z,35.10
2023-04-22T19:53:03.292Z,34.70
2023-04-22T19:55:38.760Z,34.80
2023-04-22T19:58:14.696Z,34.80
2023-04-22T20:00:50.692Z,35.10
2023-04-22T20:03:27.091Z,35.20
2023-04-22T20:06:02.498Z,35.70
2023-04-22T20:08:41.796Z,35.30
2023-04-22T20:11:17.059Z,35.40
2023-04-22T20:13:52.626Z,35.20
2023-04-22T20:16:27.986Z,35.10
2023-04-22T20:19:03.309Z,35.00
2023-04-22T20:21:39.998Z,35.30
2023-04-22T20:24:19.756Z,35.20
2023-04-22T20:26:57.154Z,35.50
2023-04-22T20:29:32.694Z,35.50
2023-04-22T20:32:09.427Z,35.30
2023-04-22T20:34:45.160Z,35.40
2023-04-22T20:37:21.543Z,35.20
2023-04-22T20:39:57.241Z,35.20
2023-04-22T20:42:36.819Z,35.20
2023-04-22T20:45:15.452Z,35.40
2023-04-22T20:47:51.482Z,35.30
2023-04-22T20:50:32.994Z,35.30
2023-04-22T20:53:07.931Z,35.20
2023-04-22T20:55:42.876Z,35.20
2023-04-22T20:58:17.785Z,35.20
2023-04-22T21:00:52.783Z,35.10
2023-04-22T21:03:28.124Z,35.10
2023-04-22T21:06:03.861Z,35.10
2023-04-22T21:08:40.876Z,35.10
2023-04-22T21:11:16.605Z,35.10
2023-04-22T21:13:52.639Z,34.90
2023-04-22T21:16:30.646Z,34.90
2023-04-22T21:19:07.906Z,34.70
2023-04-22T21:21:43.611Z,34.70
2023-04-22T21:24:19.644Z,34.70
2023-04-22T21:26:55.158Z,34.50
2023-04-22T21:29:30.400Z,34.50
2023-04-22T21:32:09.420Z,34.40
2023-04-22T21:34:45.334Z,34.30
2023-04-22T21:37:20.835Z,34.20
2023-04-22T21:39:56.735Z,34.20
2023-04-22T21:42:31.628Z,34.10
2023-04-22T21:45:07.317Z,33.90
2023-04-22T21:47:42.679Z,33.90
2023-04-22T21:50:19.586Z,33.90
2023-04-22T21:52:55.840Z,33.80
2023-04-22T21:55:30.758Z,33.70
2023-04-22T21:58:05.616Z,33.80
2023-04-22T22:00:40.481Z,33.60
2023-04-22T22:03:15.425Z,33.60
2023-04-22T22:05:50.391Z,33.70
2023-04-22T22:08:25.534Z,33.90
2023-04-22T22:11:00.436Z,33.80
2023-04-22T22:13:35.341Z,33.80
2023-04-22T22:16:10.355Z,33.80
2023-04-22T22:18:49.972Z,33.80
2023-04-22T22:21:25.153Z,33.80
2023-04-22T22:24:00.142Z,33.90
2023-04-22T22:26:36.468Z,33.90
2023-04-22T22:29:15.696Z,33.70
2023-04-22T22:31:50.770Z,33.80
2023-04-22T22:34:25.735Z,33.70
2023-04-22T22:37:01.064Z,33.90
2023-04-22T22:39:36.230Z,33.90
2023-04-22T22:42:11.152Z,33.90
2023-04-22T22:44:46.061Z,33.90
2023-04-22T22:47:21.013Z,33.90
2023-04-22T22:49:55.900Z,34.00
2023-04-22T22:52:32.007Z,34.00
2023-04-22T22:55:07.376Z,34.10
2023-04-22T22:57:42.335Z,34.00
2023-04-22T23:00:17.532Z,34.00
2023-04-22T23:02:52.616Z,34.10
2023-04-22T23:05:27.990Z,34.10
2023-04-22T23:08:02.864Z,34.10
2023-04-22T23:10:37.760Z,34.10
2023-04-22T23:13:12.652Z,34.10
2023-04-22T23:15:47.522Z,34.10
2023-04-22T23:18:22.561Z,34.00
2023-04-22T23:21:01.165Z,34.00
2023-04-22T23:23:36.952Z,34.00
2023-04-22T23:26:12.267Z,34.00
2023-04-22T23:28:47.586Z,34.00
2023-04-22T23:31:24.213Z,34.00
2023-04-22T23:34:02.900Z,34.10
2023-04-22T23:36:38.195Z,34.10
2023-04-22T23:39:13.151Z,34.20
2023-04-22T23:41:48.031Z,34.20
2023-04-22T23:44:23.126Z,34.20
2023-04-22T23:46:58.085Z,34.20
2023-04-22T23:49:33.062Z,34.20
2023-04-22T23:52:08.015Z,34.30
2023-04-22T23:54:44.688Z,34.20
2023-04-22T23:57:20.326Z,34.40
2023-04-22T23:59:55.654Z,34.30
